Time;durP1;ratioP1;P1;durP2;ratioP2;P2;SDS_P1;SDS_P2;PMS_P1;PMS_P2;Temp;Humidity;BMP_temperature;BMP_pressure;BME280_temperature;BME280_humidity;BME280_pressure;Samples;Min_cycle;Max_cycle;Signal;HPM_P1;HPM_P2
2021/12/17 00:07:19;;;;;;;59.58;8.20;;;;;;;14.92;55.04;104133.78;5014115;28;20064;-61
2021/12/17 00:09:45;;;;;;;;;;;;;;;14.98;54.79;104138.28;4996924;28;20018;-62
2021/12/17 00:12:15;;;;;;;35.28;6.93;;;;;;;14.08;57.53;104137.28;5014268;28;19933;-62
2021/12/17 00:14:44;;;;;;;27.90;8.23;;;;;;;14.08;57.92;104137.28;5002601;28;20053;-64
2021/12/17 00:17:14;;;;;;;49.58;7.28;;;;;;;14.26;57.00;104131.53;4996601;28;20709;-63
2021/12/17 00:49:22;;;;;;;44.45;10.02;;;;;;;15.73;52.77;104133.22;4976942;28;20039;-66
2021/12/17 00:54:28;;;;;;;34.05;10.70;;;;;;;15.70;52.82;104130.97;4993715;28;20057;-63
2021/12/17 00:56:55;;;;;;;37.92;10.38;;;;;;;15.87;52.67;104130.91;4993791;28;20030;-64
2021/12/17 00:59:21;;;;;;;44.03;10.57;;;;;;;15.92;52.29;104132.91;4977106;28;20034;-63
2021/12/17 01:01:48;;;;;;;48.22;9.65;;;;;;;15.52;53.31;104134.06;4992889;28;20061;-63
2021/12/17 01:04:14;;;;;;;51.35;9.35;;;;;;;15.82;52.53;104132.78;4977199;28;20023;-63
2021/12/17 01:06:40;;;;;;;55.70;9.85;;;;;;;15.87;52.61;104130.09;4976997;28;20045;-63
2021/12/17 01:09:08;;;;;;;42.03;10.57;;;;;;;15.57;53.21;104136.88;4993221;28;20027;-62
2021/12/17 01:11:35;;;;;;;47.42;9.52;;;;;;;15.46;53.38;104146.13;4976840;28;20033;-63
2021/12/17 01:14:02;;;;;;;34.92;9.82;;;;;;;15.79;52.49;104136.91;4976480;28;20035;-62
2021/12/17 01:16:28;;;;;;;30.02;9.88;;;;;;;15.56;53.21;104135.22;4993480;28;20082;-63
2021/12/17 01:19:09;;;;;;;35.15;10.77;;;;;;;15.36;53.78;104133.03;4976272;28;20049;-64
2021/12/17 01:21:55;;;;;;;34.25;11.82;;;;;;;15.19;54.33;104133.06;4976620;28;20022;-62
2021/12/17 01:24:39;;;;;;;32.37;11.60;;;;;;;15.57;53.39;104125.81;4993576;28;20057;-64
2021/12/17 01:35:21;;;;;;;28.40;11.90;;;;;;;15.77;52.99;104126.09;4993604;28;20123;-65
2021/12/17 01:43:01;;;;;;;30.33;13.20;;;;;;;15.58;53.29;104127.50;4991949;28;20049;-63
2021/12/17 01:45:31;;;;;;;26.98;12.18;;;;;;;15.86;52.56;104123.72;4993243;28;20034;-65
2021/12/17 01:48:00;;;;;;;25.50;12.02;;;;;;;16.04;52.01;104124.47;4992102;28;20037;-63
2021/12/17 02:01:13;;;;;;;44.00;15.20;;;;;;;15.85;52.72;104132.28;4992113;28;20095;-63
2021/12/17 02:03:39;;;;;;;49.95;15.23;;;;;;;15.69;52.98;104126.53;4991858;28;20149;-65
2021/12/17 02:06:05;;;;;;;42.22;13.90;;;;;;;15.62;53.20;104125.06;4989616;28;20115;-64
2021/12/17 02:08:31;;;;;;;50.92;14.40;;;;;;;15.46;53.34;104124.03;4991805;28;20031;-62
2021/12/17 02:32:21;;;;;;;64.15;15.07;;;;;;;15.57;53.38;104120.28;4992183;28;20035;-65
2021/12/17 02:37:30;;;;;;;50.80;14.57;;;;;;;15.28;54.23;104116.88;4991919;28;20035;-62
2021/12/17 02:40:14;;;;;;;50.25;13.73;;;;;;;14.79;55.53;104126.66;4975278;28;20099;-64
2021/12/17 02:45:32;;;;;;;56.08;15.40;;;;;;;15.01;55.05;104129.47;4992488;28;20030;-65
2021/12/17 02:45:34;;;;;;;46.88;12.75;;;;;;;14.44;56.42;104132.41;4992419;28;20038;-63
2021/12/17 02:48:05;;;;;;;64.00;14.23;;;;;;;14.31;57.58;104137.16;4991982;28;20031;-64
2021/12/17 02:50:32;;;;;;;70.68;14.10;;;;;;;14.12;57.89;104132.94;4975080;28;20019;-61
2021/12/17 02:53:01;;;;;;;74.53;16.20;;;;;;;14.80;56.05;104130.28;4992450;28;20023;-64
2021/12/17 02:55:30;;;;;;;65.85;14.98;;;;;;;14.64;56.32;104129.19;4974584;28;20042;-63
2021/12/17 02:57:55;;;;;;;56.22;13.90;;;;;;;14.72;56.57;104120.47;4990621;28;20054;-65
2021/12/17 03:00:21;;;;;;;70.32;15.10;;;;;;;14.77;56.34;104133.53;4974685;28;20030;-61
2021/12/17 03:02:47;;;;;;;56.00;16.20;;;;;;;14.69;56.26;104121.81;4991205;28;20054;-64
2021/12/17 03:05:13;;;;;;;63.70;16.23;;;;;;;14.99;55.64;104120.63;4991600;28;20041;-62
2021/12/17 03:07:42;;;;;;;58.65;16.98;;;;;;;14.92;55.71;104114.44;4991630;28;20050;-62
2021/12/17 03:10:11;;;;;;;53.35;18.02;;;;;;;15.08;55.47;104117.41;4990681;28;20031;-65
2021/12/17 03:23:31;;;;;;;52.88;21.90;;;;;;;15.72;53.88;104111.34;4995588;28;20066;-62
2021/12/17 03:26:01;;;;;;;52.83;22.83;;;;;;;15.90;53.06;104113.78;4981128;28;20043;-63
2021/12/17 03:28:27;;;;;;;53.47;22.63;;;;;;;15.38;54.13;104114.25;4995251;28;20023;-64
2021/12/17 03:30:52;;;;;;;63.67;27.48;;;;;;;14.97;55.59;104114.53;4994790;28;20031;-62
2021/12/17 03:33:20;;;;;;;60.75;26.13;;;;;;;14.82;56.29;104117.88;4961886;28;20031;-63
2021/12/17 03:35:46;;;;;;;64.80;25.35;;;;;;;14.76;57.13;104118.03;4978243;28;20030;-64
2021/12/17 03:38:11;;;;;;;62.88;27.83;;;;;;;15.17;55.31;104113.97;4977400;28;20034;-64
2021/12/17 03:40:39;;;;;;;63.13;26.80;;;;;;;15.08;55.74;104117.41;4961721;28;20027;-64
2021/12/17 03:43:11;;;;;;;64.68;28.05;;;;;;;15.23;55.38;104115.72;4962414;28;20050;-63
2021/12/17 03:45:39;;;;;;;62.55;28.30;;;;;;;15.44;54.46;104120.69;4978912;28;20034;-65
2021/12/17 03:48:04;;;;;;;;;;;;;;;16.14;52.67;104106.00;4978112;28;20039;-64
2021/12/17 03:50:34;;;;;;;63.85;29.67;;;;;;;15.62;54.04;104112.09;4994373;28;20035;-64
2021/12/17 03:53:00;;;;;;;83.65;34.58;;;;;;;14.99;55.81;104120.63;4978433;28;20038;-62
2021/12/17 03:55:25;;;;;;;79.28;30.67;;;;;;;14.33;58.21;104118.44;4977531;28;20019;-62
2021/12/17 03:57:51;;;;;;;84.95;30.33;;;;;;;14.36;58.18;104119.00;4994878;28;20030;-62
2021/12/17 04:00:16;;;;;;;90.82;33.92;;;;;;;14.66;57.13;104119.56;4960900;28;20031;-64
2021/12/17 04:02:42;;;;;;;89.40;32.25;;;;;;;14.80;56.69;104122.00;4977636;28;20058;-64
2021/12/17 04:05:07;;;;;;;82.35;30.10;;;;;;;14.49;57.56;104124.19;4994380;28;20563;-65
2021/12/17 04:07:33;;;;;;;75.57;27.85;;;;;;;14.00;59.33;104119.22;4977080;28;20030;-61
2021/12/17 04:09:59;;;;;;;74.57;29.65;;;;;;;14.77;57.02;104128.00;4993831;28;20034;-62
2021/12/17 04:12:38;;;;;;;84.75;30.98;;;;;;;14.94;56.14;104128.00;4993940;28;20026;-63
2021/12/17 04:15:05;;;;;;;82.63;30.95;;;;;;;14.93;56.54;104134.63;4979601;28;20101;-65
2021/12/17 04:17:38;;;;;;;59.28;24.42;;;;;;;14.83;56.33;104133.38;4993845;28;20070;-63
2021/12/17 04:20:04;;;;;;;74.63;29.30;;;;;;;14.71;56.75;104129.84;4963814;28;20023;-62
2021/12/17 04:22:29;;;;;;;53.95;23.38;;;;;;;14.33;57.91;104123.97;4976780;28;20050;-63
2021/12/17 04:24:55;;;;;;;57.53;25.58;;;;;;;14.13;58.91;104134.63;4961207;28;20058;-62
2021/12/17 04:27:20;;;;;;;67.80;29.02;;;;;;;14.38;57.77;104133.41;4976994;28;20519;-66
2021/12/17 04:29:45;;;;;;;47.83;20.85;;;;;;;14.08;58.77;104129.00;4960435;28;20039;-62
2021/12/17 04:32:12;;;;;;;47.60;21.25;;;;;;;13.66;59.76;104137.53;4993116;28;20042;-63
2021/12/17 04:34:37;;;;;;;53.58;23.92;;;;;;;14.21;58.58;104138.91;4976933;28;20037;-62
2021/12/17 04:37:03;;;;;;;68.25;28.15;;;;;;;14.34;58.28;104136.66;4977170;28;20038;-66
2021/12/17 04:39:28;;;;;;;66.97;25.70;;;;;;;14.74;56.91;104134.03;4960267;28;20030;-64
2021/12/17 04:42:14;;;;;;;64.57;26.35;;;;;;;14.93;56.13;104140.97;4993825;28;20038;-61
2021/12/17 04:44:47;;;;;;;60.60;26.77;;;;;;;15.10;55.48;104142.91;4993158;28;20031;-62
2021/12/17 04:57:52;;;;;;;40.28;18.15;;;;;;;14.13;58.20;104132.69;4993531;28;20118;-65
2021/12/17 05:00:29;;;;;;;38.47;17.30;;;;;;;14.08;58.47;104129.84;4975837;28;20042;-70
2021/12/17 05:02:57;;;;;;;35.65;17.60;;;;;;;14.06;58.38;104125.63;4993319;28;20041;-65
2021/12/17 05:05:28;;;;;;;32.17;16.20;;;;;;;13.46;59.79;104133.28;4992947;28;20022;-62
2021/12/17 05:08:01;;;;;;;27.35;13.70;;;;;;;13.21;60.36;104136.28;4993542;28;20033;-65
2021/12/17 05:18:27;;;;;;;28.05;14.18;;;;;;;14.09;58.31;104133.44;4979074;28;20046;-65
2021/12/17 05:21:02;;;;;;;33.88;14.65;;;;;;;13.99;58.60;104130.50;4975929;28;20031;-66
2021/12/17 05:23:31;;;;;;;35.63;17.08;;;;;;;14.09;58.26;104127.91;4975390;28;20054;-62
2021/12/17 05:26:03;;;;;;;28.27;14.60;;;;;;;13.66;59.34;104126.50;4993515;28;20070;-62
2021/12/17 05:28:29;;;;;;;25.67;10.80;;;;;;;13.42;59.89;104129.31;4975521;28;20058;-66
2021/12/17 05:30:55;;;;;;;28.30;13.63;;;;;;;13.84;58.77;104115.31;4975729;28;20063;-65
2021/12/17 05:33:22;;;;;;;28.92;14.70;;;;;;;14.57;56.64;104110.00;4992579;28;20030;-62
2021/12/17 05:35:48;;;;;;;29.90;14.25;;;;;;;14.52;56.68;104123.69;4976476;28;20039;-62
2021/12/17 05:38:16;;;;;;;33.60;15.23;;;;;;;14.84;55.98;104123.16;4993247;28;20031;-63
2021/12/17 05:40:42;;;;;;;26.75;12.77;;;;;;;13.89;58.54;104136.66;4975087;28;20026;-64
2021/12/17 05:43:08;;;;;;;29.48;14.10;;;;;;;14.68;56.48;104139.50;4975492;28;20042;-65
2021/12/17 05:45:37;;;;;;;30.58;13.60;;;;;;;14.46;56.91;104141.25;4975121;28;20031;-64
2021/12/17 05:48:06;;;;;;;29.75;11.90;;;;;;;13.90;58.50;104136.41;4992637;28;20019;-62
2021/12/17 05:50:33;;;;;;;30.73;14.15;;;;;;;14.39;57.21;104137.84;4992304;28;20049;-62
2021/12/17 05:52:59;;;;;;;30.08;14.75;;;;;;;13.89;59.07;104133.88;4992934;28;20038;-64
2021/12/17 05:55:25;;;;;;;36.22;15.07;;;;;;;14.18;57.58;104126.44;4992600;28;20037;-63
2021/12/17 05:57:52;;;;;;;36.08;15.00;;;;;;;14.41;56.88;104135.66;4975698;28;20042;-62
2021/12/17 06:00:19;;;;;;;34.67;14.85;;;;;;;14.96;55.50;104143.22;4974751;28;20027;-63
2021/12/17 06:02:44;;;;;;;33.33;14.88;;;;;;;14.47;56.73;104137.44;4974962;28;20031;-64
2021/12/17 06:05:10;;;;;;;34.15;15.30;;;;;;;14.20;57.59;104139.97;4975351;28;20073;-64
2021/12/17 06:07:35;;;;;;;35.05;13.98;;;;;;;13.44;59.48;104151.97;4991175;28;20045;-63
2021/12/17 06:10:03;;;;;;;37.53;15.52;;;;;;;13.87;59.19;104141.56;4975045;28;20034;-63
2021/12/17 06:12:29;;;;;;;39.78;15.75;;;;;;;14.27;57.92;104151.69;4974647;28;20066;-62
2021/12/17 06:14:54;;;;;;;45.30;15.93;;;;;;;14.37;57.44;104151.06;4975069;28;20030;-63
2021/12/17 06:17:20;;;;;;;45.83;15.77;;;;;;;13.70;59.34;104158.03;4992656;28;20045;-62
2021/12/17 06:19:45;;;;;;;40.30;14.60;;;;;;;14.55;56.88;104150.81;4975042;28;20040;-64
2021/12/17 06:22:11;;;;;;;42.97;14.80;;;;;;;13.73;59.07;104154.81;4975041;28;20057;-65
2021/12/17 06:24:37;;;;;;;40.80;14.55;;;;;;;14.25;57.99;104168.53;4990502;28;20053;-64
2021/12/17 06:27:02;;;;;;;46.13;15.05;;;;;;;14.23;57.83;104161.56;4974907;28;20034;-64
2021/12/17 06:29:28;;;;;;;45.17;15.23;;;;;;;14.35;57.74;104170.63;4991728;28;20037;-65
2021/12/17 06:31:53;;;;;;;42.95;15.00;;;;;;;14.36;57.31;104174.22;4990900;28;20030;-63
2021/12/17 06:34:18;;;;;;;47.15;15.02;;;;;;;13.90;58.48;104163.97;4974756;28;20034;-63
2021/12/17 06:36:44;;;;;;;43.40;15.50;;;;;;;14.36;57.33;104165.94;4974997;28;20045;-62
2021/12/17 06:39:09;;;;;;;40.58;14.50;;;;;;;13.93;58.67;104166.22;4992590;28;20051;-63
2021/12/17 06:41:35;;;;;;;39.97;13.73;;;;;;;13.98;58.80;104171.00;4990443;28;20043;-62
2021/12/17 06:44:01;;;;;;;46.13;14.98;;;;;;;14.23;58.03;104172.59;4991457;28;20047;-62
2021/12/17 06:46:37;;;;;;;39.55;14.40;;;;;;;15.29;54.80;104174.69;4974120;28;20035;-64
2021/12/17 06:59:46;;;;;;;37.38;13.35;;;;;;;13.91;58.46;104170.31;4994795;28;20031;-64
2021/12/17 07:10:37;;;;;;;39.58;13.35;;;;;;;14.84;55.96;104170.09;4994194;28;20046;-65
2021/12/17 07:24:26;;;;;;;38.28;13.05;;;;;;;15.51;53.92;104183.00;4993396;28;20106;-64
2021/12/17 07:32:34;;;;;;;33.00;11.95;;;;;;;15.42;54.12;104174.28;4994548;28;20034;-65
2021/12/17 07:35:25;;;;;;;33.08;11.55;;;;;;;14.63;56.31;104189.09;4994560;28;20030;-65
2021/12/17 07:40:32;;;;;;;26.38;10.40;;;;;;;15.15;54.85;104184.41;4994281;28;20128;-65
2021/12/17 07:42:57;;;;;;;28.55;10.00;;;;;;;15.16;54.70;104197.13;4976573;28;20051;-64
2021/12/17 07:45:23;;;;;;;30.45;10.73;;;;;;;15.46;54.35;104195.91;4993266;28;20030;-64
2021/12/17 07:47:48;;;;;;;35.80;11.27;;;;;;;15.89;52.80;104195.16;4993636;28;20031;-63
2021/12/17 07:50:14;;;;;;;29.02;10.65;;;;;;;15.42;53.97;104199.19;4976992;28;20029;-63
2021/12/17 07:52:40;;;;;;;28.30;10.45;;;;;;;15.62;53.76;104200.56;4976701;28;20045;-64
2021/12/17 07:55:05;;;;;;;27.25;9.85;;;;;;;15.91;52.71;104194.88;4994057;28;20037;-63
2021/12/17 07:57:31;;;;;;;28.40;10.02;;;;;;;16.03;52.49;104203.03;4976659;28;20117;-65
2021/12/17 07:59:56;;;;;;;24.92;9.32;;;;;;;16.16;52.13;104207.34;4992615;28;20086;-64
2021/12/17 08:02:21;;;;;;;23.65;8.98;;;;;;;16.20;51.81;104200.19;4993599;28;20027;-65
2021/12/17 08:04:46;;;;;;;21.90;8.80;;;;;;;16.13;52.21;104192.09;4975194;28;20042;-62
2021/12/17 08:07:12;;;;;;;24.38;9.35;;;;;;;16.25;51.88;104203.00;4994296;28;20054;-62
2021/12/17 08:09:39;;;;;;;27.10;9.70;;;;;;;15.80;52.37;104209.69;4976688;28;20034;-62
2021/12/17 08:12:07;;;;;;;20.77;8.82;;;;;;;16.03;52.27;104205.81;4977050;28;20403;-61
2021/12/17 08:14:33;;;;;;;23.38;9.10;;;;;;;15.59;53.13;104209.38;4976908;28;20050;-63
2021/12/17 08:17:26;;;;;;;24.17;9.15;;;;;;;15.74;53.29;104212.34;4976610;28;20097;-65
2021/12/17 08:25:17;;;;;;;27.98;10.32;;;;;;;15.14;54.97;104215.88;5006233;28;20081;-61
2021/12/17 08:28:00;;;;;;;22.38;9.40;;;;;;;15.46;53.89;104213.31;4986978;28;20042;-62
2021/12/17 08:30:28;;;;;;;24.75;8.68;;;;;;;15.67;53.26;104206.16;5004222;28;20018;-63
2021/12/17 08:32:53;;;;;;;22.27;9.90;;;;;;;15.54;53.78;104209.28;5000766;28;20030;-62
2021/12/17 08:35:19;;;;;;;24.83;9.95;;;;;;;15.38;54.25;104199.94;5013060;28;20133;-63
2021/12/17 08:37:44;;;;;;;25.67;10.27;;;;;;;16.11;52.58;104197.91;4995143;28;20030;-63
2021/12/17 08:40:10;;;;;;;24.45;9.40;;;;;;;15.49;54.24;104201.75;4978833;28;20030;-64
2021/12/17 08:42:35;;;;;;;27.92;11.40;;;;;;;16.07;52.98;104196.72;5013372;28;20038;-64
2021/12/17 08:45:03;;;;;;;24.83;10.50;;;;;;;16.17;52.79;104204.31;4979974;28;20030;-64
2021/12/17 08:47:29;;;;;;;23.48;9.30;;;;;;;14.95;55.31;104210.63;4994947;28;20489;-65
2021/12/17 08:49:55;;;;;;;26.35;9.73;;;;;;;14.83;56.54;104198.81;4995052;28;20031;-65
2021/12/17 08:52:20;;;;;;;23.67;9.18;;;;;;;14.88;56.19;104196.97;5013188;28;20023;-63
2021/12/17 08:54:46;;;;;;;22.88;10.02;;;;;;;15.37;55.40;104204.63;4978739;28;20057;-65
2021/12/17 08:57:11;;;;;;;24.13;9.60;;;;;;;14.61;57.08;104199.56;5012889;28;20422;-64
2021/12/17 08:59:37;;;;;;;26.00;10.50;;;;;;;14.99;56.09;104208.22;4979551;28;20034;-62
2021/12/17 09:02:06;;;;;;;23.90;9.57;;;;;;;14.74;56.67;104203.09;4995466;28;20391;-62
2021/12/17 09:04:31;;;;;;;24.60;9.55;;;;;;;14.29;58.04;104211.06;4996161;28;20027;-63
2021/12/17 09:06:57;;;;;;;25.73;9.32;;;;;;;14.82;56.85;104205.44;5012757;28;20038;-62
2021/12/17 09:09:23;;;;;;;23.23;9.60;;;;;;;14.67;57.29;104206.00;4995659;28;20026;-63
2021/12/17 09:11:51;;;;;;;24.65;9.95;;;;;;;15.50;54.99;104208.16;5018430;28;20027;-63
2021/12/17 09:14:19;;;;;;;25.98;9.75;;;;;;;14.66;57.50;104213.44;5014870;28;20026;-64
2021/12/17 09:16:50;;;;;;;23.05;10.02;;;;;;;15.36;55.49;104210.41;5001816;28;20026;-64
2021/12/17 09:19:16;;;;;;;24.00;10.18;;;;;;;15.56;54.96;104202.41;5021075;28;20033;-63
2021/12/17 09:21:42;;;;;;;27.67;10.88;;;;;;;15.41;55.22;104210.50;5000367;28;20831;-64
2021/12/17 09:24:07;;;;;;;26.52;10.57;;;;;;;15.81;54.17;104208.56;5020928;28;20779;-62
2021/12/17 09:26:33;;;;;;;23.27;9.73;;;;;;;15.32;55.40;104212.00;5020689;28;20110;-64
2021/12/17 09:28:59;;;;;;;23.42;9.85;;;;;;;15.14;55.45;104215.88;5017246;28;20036;-63
2021/12/17 09:31:25;;;;;;;27.63;10.25;;;;;;;15.08;56.19;104217.75;5017596;28;20026;-65
2021/12/17 09:33:51;;;;;;;26.77;10.57;;;;;;;15.56;55.31;104212.66;5020226;28;20037;-62
2021/12/17 09:36:18;;;;;;;24.83;10.13;;;;;;;15.09;56.50;104218.59;5003033;28;20053;-61
2021/12/17 09:38:49;;;;;;;28.00;10.07;;;;;;;14.51;58.16;104218.69;5017190;28;20139;-65
2021/12/17 09:41:14;;;;;;;28.00;9.93;;;;;;;14.24;58.27;104219.28;5002727;28;20036;-62
2021/12/17 09:43:40;;;;;;;28.70;10.60;;;;;;;15.68;55.13;104221.66;5005318;28;20030;-62
2021/12/17 09:46:06;;;;;;;29.20;10.10;;;;;;;15.91;54.34;104220.63;5025250;28;20056;-64
2021/12/17 09:48:34;;;;;;;27.88;10.13;;;;;;;16.19;53.22;104228.97;4982463;28;20041;-63
2021/12/17 09:51:01;;;;;;;24.85;9.98;;;;;;;14.86;56.35;104231.47;5013723;28;20090;-65
2021/12/17 09:53:27;;;;;;;25.27;9.88;;;;;;;15.08;56.60;104244.53;5014703;28;20014;-65
2021/12/17 09:55:52;;;;;;;21.67;8.43;;;;;;;16.20;53.54;104233.41;5007506;28;20578;-65
2021/12/17 09:58:18;;;;;;;19.67;8.25;;;;;;;15.54;54.96;104236.94;4999094;28;20038;-63
2021/12/17 10:00:44;;;;;;;22.77;8.65;;;;;;;14.83;56.90;104245.78;5016179;28;20023;-63
2021/12/17 10:03:09;;;;;;;22.00;8.60;;;;;;;15.48;55.72;104246.25;4982291;28;20030;-64
2021/12/17 10:05:36;;;;;;;22.38;9.00;;;;;;;15.59;55.25;104239.81;5013453;28;20053;-63
2021/12/17 10:08:14;;;;;;;19.90;7.88;;;;;;;14.75;57.91;104243.44;5001650;28;20033;-64
2021/12/17 10:10:43;;;;;;;19.50;8.38;;;;;;;14.42;58.71;104245.00;5021699;28;20018;-62
2021/12/17 10:13:11;;;;;;;17.25;8.20;;;;;;;15.45;56.01;104252.31;5015960;28;20026;-61
2021/12/17 10:15:40;;;;;;;16.50;7.30;;;;;;;13.86;59.38;104256.56;5016332;28;20018;-63
2021/12/17 10:18:06;;;;;;;18.20;7.07;;;;;;;14.61;57.82;104257.53;5018376;28;20040;-63
2021/12/17 10:20:34;;;;;;;16.10;6.88;;;;;;;14.24;58.27;104257.91;4985180;28;20045;-64
2021/12/17 10:23:04;;;;;;;17.20;7.32;;;;;;;14.62;57.96;104250.06;5015603;28;20022;-64
2021/12/17 10:25:31;;;;;;;19.23;7.57;;;;;;;15.03;55.96;104259.94;5016613;28;20050;-64
2021/12/17 10:28:01;;;;;;;19.13;6.95;;;;;;;14.51;57.68;104262.84;5013106;28;20034;-62
2021/12/17 10:30:28;;;;;;;18.15;7.18;;;;;;;15.04;56.83;104267.13;5018920;28;20049;-64
2021/12/17 10:32:57;;;;;;;18.85;7.55;;;;;;;14.41;58.82;104268.16;5024561;28;20034;-62
2021/12/17 10:35:28;;;;;;;20.00;8.18;;;;;;;15.25;56.39;104264.72;5015631;28;20026;-66
2021/12/17 10:37:57;;;;;;;18.63;7.03;;;;;;;14.69;57.59;104265.41;5001799;28;20897;-64
2021/12/17 10:40:29;;;;;;;20.35;7.75;;;;;;;14.60;57.93;104266.06;5014049;28;20064;-61
2021/12/17 10:43:20;;;;;;;15.20;6.28;;;;;;;14.42;58.07;104265.16;5024410;28;20898;-62
2021/12/17 10:46:27;;;;;;;13.48;5.63;;;;;;;14.12;58.39;104270.88;5022912;28;20026;-62
2021/12/17 10:54:08;;;;;;;11.95;5.07;;;;;;;14.58;57.78;104270.97;5023918;28;20029;-64
2021/12/17 10:56:42;;;;;;;13.13;5.63;;;;;;;15.07;56.25;104264.97;5019782;28;20022;-63
2021/12/17 10:59:20;;;;;;;10.63;4.57;;;;;;;15.44;55.44;104272.75;4991382;28;20040;-62
2021/12/17 11:01:48;;;;;;;11.35;5.30;;;;;;;15.89;53.91;104261.53;5012978;28;20772;-63
2021/12/17 11:04:29;;;;;;;12.27;5.22;;;;;;;16.30;53.11;104259.28;5024990;28;20022;-63
2021/12/17 11:07:05;;;;;;;11.48;4.95;;;;;;;16.01;53.70;104258.63;5022682;28;20033;-62
2021/12/17 11:09:45;;;;;;;11.40;4.88;;;;;;;14.82;56.92;104257.91;4991614;28;20029;-61
2021/12/17 11:12:12;;;;;;;9.95;4.43;;;;;;;16.03;53.75;104261.97;5020147;28;20022;-64
2021/12/17 11:14:37;;;;;;;10.02;4.15;;;;;;;14.91;56.52;104261.13;5004060;28;20037;-65
2021/12/17 11:17:03;;;;;;;9.20;4.20;;;;;;;14.16;57.89;104261.06;5018643;28;20018;-62
2021/12/17 11:19:30;;;;;;;10.32;4.45;;;;;;;14.50;56.84;104252.88;5017994;28;20023;-61
2021/12/17 11:21:56;;;;;;;8.70;4.15;;;;;;;15.88;53.62;104264.56;5025074;28;20098;-62
2021/12/17 11:24:22;;;;;;;7.93;3.70;;;;;;;15.94;53.30;104258.84;5015645;28;20050;-62
2021/12/17 11:26:49;;;;;;;10.35;4.38;;;;;;;15.78;53.91;104252.25;4993958;28;20043;-64
2021/12/17 11:29:16;;;;;;;8.07;3.17;;;;;;;15.68;53.63;104254.84;5010326;28;20026;-63
2021/12/17 11:31:42;;;;;;;5.25;2.53;;;;;;;14.73;56.16;104256.63;4977936;28;20032;-65
2021/12/17 11:34:09;;;;;;;5.25;2.40;;;;;;;15.14;54.43;104249.06;5010564;28;20061;-63
2021/12/17 11:36:35;;;;;;;5.85;2.35;;;;;;;15.39;54.16;104254.16;5018490;28;20034;-62
2021/12/17 11:39:21;;;;;;;5.80;2.35;;;;;;;15.76;52.92;104237.84;5006319;28;20034;-64
2021/12/17 11:42:04;;;;;;;5.78;2.40;;;;;;;15.80;52.73;104240.13;5030960;28;20033;-65
2021/12/17 11:44:40;;;;;;;5.88;2.60;;;;;;;15.80;52.38;104242.88;5016140;28;20030;-62
2021/12/17 11:47:10;;;;;;;6.88;2.90;;;;;;;15.62;52.96;104242.06;5034142;28;20030;-61
2021/12/17 11:49:47;;;;;;;7.82;3.33;;;;;;;16.21;51.41;104246.13;5034172;28;20084;-63
2021/12/17 11:52:13;;;;;;;6.35;3.15;;;;;;;15.41;53.00;104244.53;5016531;28;20029;-64
2021/12/17 11:54:40;;;;;;;5.85;2.92;;;;;;;16.01;51.80;104236.50;5000773;28;20097;-64
2021/12/17 11:57:08;;;;;;;5.93;3.08;;;;;;;16.16;51.20;104237.78;5016685;28;20034;-62
2021/12/17 11:59:37;;;;;;;5.30;3.05;;;;;;;15.39;52.71;104232.03;5016238;28;20029;-63
2021/12/17 12:02:16;;;;;;;8.00;3.10;;;;;;;16.20;51.10;104225.09;5033853;28;20033;-63
2021/12/17 12:04:47;;;;;;;6.38;3.13;;;;;;;15.86;51.96;104230.75;5034110;28;20040;-61
2021/12/17 12:07:20;;;;;;;6.50;3.45;;;;;;;15.25;53.91;104234.31;5013230;28;20030;-62
2021/12/17 12:10:21;;;;;;;7.50;3.83;;;;;;;16.10;51.76;104234.97;5016384;28;20032;-63
2021/12/17 12:12:46;;;;;;;5.93;3.33;;;;;;;15.61;52.42;104232.06;5033894;28;20650;-64
2021/12/17 12:15:24;;;;;;;7.80;3.60;;;;;;;14.86;54.07;104239.75;5033285;28;20033;-61
2021/12/17 12:18:02;;;;;;;;;;;;;;;14.06;56.09;104238.75;5006269;28;20040;-61
2021/12/17 12:20:56;;;;;;;7.38;3.33;;;;;;;13.67;58.08;104252.28;4994053;28;19914;-63
2021/12/17 12:23:29;;;;;;;6.80;3.45;;;;;;;13.21;59.59;104247.31;5009581;28;20081;-62
2021/12/17 12:26:04;;;;;;;7.03;3.90;;;;;;;14.01;57.57;104255.19;5021443;28;20091;-63
2021/12/17 12:28:44;;;;;;;8.90;4.10;;;;;;;13.53;58.93;104246.16;5005419;28;20105;-63
2021/12/17 12:31:11;;;;;;;7.63;3.75;;;;;;;13.45;59.31;104246.53;4999672;28;20045;-62
2021/12/17 12:34:03;;;;;;;6.60;3.40;;;;;;;13.09;60.14;104253.88;5009395;28;20052;-63
2021/12/17 12:36:43;;;;;;;8.77;4.55;;;;;;;14.27;57.77;104245.50;5023241;28;20025;-61
2021/12/17 12:39:29;;;;;;;9.95;5.32;;;;;;;15.23;54.13;104244.78;5020532;28;20045;-62
2021/12/17 12:41:55;;;;;;;11.93;6.00;;;;;;;14.01;57.89;104252.44;5005391;28;20084;-62
2021/12/17 12:44:40;;;;;;;8.50;4.63;;;;;;;13.48;58.77;104255.16;5020408;28;20025;-64
2021/12/17 12:47:08;;;;;;;7.25;4.22;;;;;;;13.17;60.17;104250.78;5022355;28;20029;-60
2021/12/17 12:49:39;;;;;;;;;;;;;;;13.47;59.08;104247.94;5001283;28;20026;-61
2021/12/17 12:52:27;;;;;;;9.18;4.80;;;;;;;14.55;55.85;104244.69;5022898;28;19913;-63
2021/12/17 12:55:14;;;;;;;7.85;4.60;;;;;;;14.82;55.10;104247.69;5016755;28;20114;-64
2021/12/17 12:57:41;;;;;;;;;;;;;;;13.38;59.29;104238.38;5004190;28;20057;-62
2021/12/17 13:00:27;;;;;;;;;;;;;;;13.41;59.76;104240.66;5021204;28;19910;-62
2021/12/17 13:02:56;;;;;;;5.90;2.85;;;;;;;13.29;59.23;104229.59;5006349;28;19917;-61
2021/12/17 13:05:23;;;;;;;4.88;2.90;;;;;;;14.07;56.00;104223.88;5019948;28;20026;-61
2021/12/17 13:07:54;;;;;;;5.65;3.20;;;;;;;14.86;54.84;104225.94;5016358;28;20034;-64
2021/12/17 13:10:23;;;;;;;4.97;2.78;;;;;;;14.36;55.46;104221.13;5017888;28;20058;-62
2021/12/17 13:13:07;;;;;;;5.03;2.50;;;;;;;13.38;58.97;104228.19;5005399;28;20033;-63
2021/12/17 13:15:42;;;;;;;4.63;2.65;;;;;;;13.91;57.36;104226.31;5019444;28;20026;-63
2021/12/17 13:23:19;;;;;;;3.65;2.25;;;;;;;13.07;58.78;104224.69;5017528;28;20034;-61
2021/12/17 13:25:45;;;;;;;5.30;2.30;;;;;;;13.88;57.56;104215.78;5000862;28;20050;-62
2021/12/17 13:28:10;;;;;;;5.32;2.53;;;;;;;13.68;57.37;104218.09;5001552;28;20134;-61
2021/12/17 13:30:36;;;;;;;4.43;2.60;;;;;;;14.19;56.35;104216.41;5002546;28;20027;-62
2021/12/17 13:33:01;;;;;;;4.55;2.70;;;;;;;13.17;58.91;104220.47;5001059;28;20057;-63
2021/12/17 13:35:27;;;;;;;5.10;2.80;;;;;;;13.55;58.39;104216.44;5019539;28;20022;-63
2021/12/17 13:38:01;;;;;;;4.82;2.67;;;;;;;13.68;58.06;104216.19;5002346;28;20709;-64
2021/12/17 13:40:28;;;;;;;4.78;2.80;;;;;;;13.08;60.06;104220.00;5013036;28;20034;-63
2021/12/17 13:42:55;;;;;;;6.60;3.28;;;;;;;12.94;60.27;104216.63;5024415;28;20031;-62
2021/12/17 13:45:21;;;;;;;;;;;;;;;14.59;55.83;104214.69;5005388;28;20025;-65
2021/12/17 13:47:54;;;;;;;7.50;3.70;;;;;;;13.97;57.76;104219.00;5022687;28;19913;-62
2021/12/17 13:50:22;;;;;;;6.72;3.58;;;;;;;12.83;60.71;104221.03;5005304;28;20053;-63
2021/12/17 13:52:58;;;;;;;8.73;4.40;;;;;;;13.94;58.06;104209.28;5018062;28;20022;-62
2021/12/17 13:55:41;;;;;;;8.27;4.50;;;;;;;13.99;57.53;104216.00;5019907;28;20093;-65
2021/12/17 13:58:16;;;;;;;6.43;3.55;;;;;;;15.09;54.21;104218.59;5019009;28;20057;-62
2021/12/17 14:00:46;;;;;;;7.95;4.10;;;;;;;15.36;52.92;104208.50;5005522;28;20044;-62
2021/12/17 14:03:14;;;;;;;5.28;3.13;;;;;;;14.65;54.28;104197.97;5021193;28;20045;-63
2021/12/17 14:05:41;;;;;;;5.40;3.10;;;;;;;13.88;56.35;104204.75;5023795;28;20085;-62
2021/12/17 14:08:11;;;;;;;5.35;3.08;;;;;;;15.10;53.18;104209.22;4978372;28;20026;-62
2021/12/17 14:10:37;;;;;;;6.85;3.60;;;;;;;14.99;52.96;104213.72;5021634;28;20029;-61
2021/12/17 14:13:05;;;;;;;5.82;3.38;;;;;;;14.88;53.46;104216.31;5002163;28;20034;-61
2021/12/17 14:15:33;;;;;;;5.03;3.38;;;;;;;15.81;51.09;104211.34;5023076;28;20033;-63
2021/12/17 14:18:04;;;;;;;6.20;2.97;;;;;;;15.78;50.82;104208.00;5020450;28;20057;-63